Time;durP1;ratioP1;P1;durP2;ratioP2;P2;SDS_P1;SDS_P2;PMS_P1;PMS_P2;Temp;Humidity;BMP_temperature;BMP_pressure;BME280_temperature;BME280_humidity;BME280_pressure;Samples;Min_cycle;Max_cycle;Signal;HPM_P1;HPM_P2
2021/07/31 00:01:23;;;;;;;2.63;1.57;;;16.70;99.90;;;;;;5033266;28;20209;-58
2021/07/31 00:03:50;;;;;;;4.83;1.80;;;16.70;99.90;;;;;;5031497;28;20653;-57
2021/07/31 00:06:27;;;;;;;10.63;2.10;;;16.70;99.90;;;;;;5032845;28;20252;-57
2021/07/31 00:08:54;;;;;;;9.57;2.70;;;16.70;99.90;;;;;;5033314;28;20207;-58
2021/07/31 00:11:21;;;;;;;5.43;2.13;;;16.70;99.90;;;;;;5033477;28;20224;-58
2021/07/31 00:13:48;;;;;;;5.83;2.50;;;16.70;99.90;;;;;;5034477;28;20293;-58
2021/07/31 00:16:15;;;;;;;5.43;2.23;;;16.70;99.90;;;;;;5032719;28;20209;-58
2021/07/31 00:18:42;;;;;;;6.10;2.23;;;16.70;99.90;;;;;;5033606;28;20207;-58
2021/07/31 00:21:09;;;;;;;5.77;2.30;;;16.70;99.90;;;;;;5035865;28;20328;-58
2021/07/31 00:23:36;;;;;;;3.97;1.80;;;16.70;99.90;;;;;;5036932;28;20300;-60
2021/07/31 00:26:02;;;;;;;11.20;2.70;;;16.80;99.90;;;;;;5036884;28;20216;-59
2021/07/31 00:28:29;;;;;;;4.80;2.57;;;16.80;99.90;;;;;;5037991;28;20625;-57
2021/07/31 00:30:56;;;;;;;4.23;2.07;;;16.90;99.90;;;;;;5035632;28;20360;-58
2021/07/31 00:33:23;;;;;;;6.53;2.60;;;16.80;99.90;;;;;;5036250;28;20278;-57
2021/07/31 00:35:50;;;;;;;4.43;2.27;;;16.80;99.90;;;;;;5033812;28;20844;-58
2021/07/31 00:38:17;;;;;;;7.40;2.40;;;16.70;99.90;;;;;;5031995;28;21330;-57
2021/07/31 00:40:44;;;;;;;8.07;2.47;;;16.80;99.90;;;;;;5035658;28;20297;-58
2021/07/31 00:43:10;;;;;;;4.73;2.33;;;16.70;99.90;;;;;;5037796;28;20626;-58
2021/07/31 00:45:38;;;;;;;5.80;2.23;;;16.70;99.90;;;;;;5036659;28;21094;-58
2021/07/31 00:48:05;;;;;;;5.70;2.33;;;16.70;99.90;;;;;;5037457;28;20661;-58
2021/07/31 00:50:33;;;;;;;8.03;2.50;;;16.70;99.90;;;;;;5033506;28;20275;-58
2021/07/31 00:53:00;;;;;;;8.17;2.37;;;16.70;99.90;;;;;;5035332;28;20205;-58
2021/07/31 00:55:28;;;;;;;6.77;2.30;;;16.70;99.90;;;;;;5022744;28;20382;-58
2021/07/31 00:57:57;;;;;;;8.43;2.67;;;16.70;99.90;;;;;;5037191;28;20218;-58
2021/07/31 01:00:25;;;;;;;9.37;2.70;;;16.70;99.90;;;;;;5039267;28;20248;-58
2021/07/31 01:02:52;;;;;;;6.60;2.83;;;16.80;99.90;;;;;;5035002;28;20695;-58
2021/07/31 01:05:20;;;;;;;10.00;3.20;;;16.70;99.90;;;;;;5035010;28;20315;-58
2021/07/31 01:07:48;;;;;;;4.00;2.20;;;16.70;99.90;;;;;;5038427;28;20319;-57
2021/07/31 01:10:16;;;;;;;7.50;2.87;;;16.70;99.90;;;;;;5052720;28;20293;-58
2021/07/31 01:12:45;;;;;;;10.07;2.90;;;16.70;99.90;;;;;;5036398;28;20288;-58
2021/07/31 01:15:13;;;;;;;5.67;2.30;;;16.60;99.90;;;;;;5036360;28;20638;-58
2021/07/31 01:17:40;;;;;;;6.20;2.60;;;16.60;99.90;;;;;;5036829;28;20275;-58
2021/07/31 01:20:08;;;;;;;4.27;2.70;;;16.60;99.90;;;;;;5033978;28;20218;-58
2021/07/31 01:22:35;;;;;;;5.40;2.70;;;16.70;99.90;;;;;;5037341;28;20611;-58
2021/07/31 01:25:03;;;;;;;5.07;2.43;;;16.60;99.90;;;;;;5029630;28;20304;-58
2021/07/31 01:27:30;;;;;;;6.83;2.80;;;16.70;99.90;;;;;;5033546;28;20268;-58
2021/07/31 01:29:58;;;;;;;5.77;2.33;;;16.60;99.90;;;;;;5035121;28;20293;-58
2021/07/31 01:32:25;;;;;;;7.93;3.33;;;16.60;99.90;;;;;;5034902;28;20231;-57
2021/07/31 01:34:52;;;;;;;10.00;3.77;;;16.60;99.90;;;;;;5031335;28;20274;-58
2021/07/31 01:37:19;;;;;;;11.57;2.90;;;16.60;99.90;;;;;;5035567;28;20278;-57
2021/07/31 01:39:47;;;;;;;7.97;2.43;;;16.60;99.90;;;;;;5036576;28;20696;-57
2021/07/31 01:42:15;;;;;;;5.83;2.40;;;16.70;99.90;;;;;;5037932;28;20620;-57
2021/07/31 01:44:42;;;;;;;9.67;3.07;;;16.70;99.90;;;;;;5035912;28;20548;-58
2021/07/31 01:47:08;;;;;;;9.87;3.20;;;16.70;99.90;;;;;;5035936;28;20650;-58
2021/07/31 01:49:35;;;;;;;7.33;3.50;;;16.60;99.90;;;;;;5034493;28;20200;-58
2021/07/31 01:52:02;;;;;;;3.20;2.80;;;16.70;99.90;;;;;;5033668;28;20342;-58
2021/07/31 01:54:29;;;;;;;11.53;3.90;;;16.70;99.90;;;;;;5034063;28;20388;-58
2021/07/31 01:56:56;;;;;;;5.50;3.10;;;16.70;99.90;;;;;;5038853;28;20302;-57
2021/07/31 01:59:23;;;;;;;6.20;2.73;;;16.70;99.90;;;;;;5034354;28;20275;-58
2021/07/31 02:01:49;;;;;;;8.97;3.23;;;16.80;99.90;;;;;;5034616;28;20212;-57
2021/07/31 02:04:16;;;;;;;5.37;3.33;;;16.70;99.90;;;;;;5030903;28;20236;-57
2021/07/31 02:06:43;;;;;;;8.53;2.90;;;16.70;99.90;;;;;;5033912;28;20330;-58
2021/07/31 02:09:10;;;;;;;6.60;2.70;;;16.60;99.90;;;;;;5040771;28;20230;-58
2021/07/31 02:11:37;;;;;;;11.63;3.47;;;16.60;99.90;;;;;;5044636;28;20293;-58
2021/07/31 02:14:03;;;;;;;8.83;3.50;;;16.60;99.90;;;;;;5031346;28;20227;-58
2021/07/31 02:16:30;;;;;;;7.60;3.20;;;16.60;99.90;;;;;;5033020;28;20927;-58
2021/07/31 02:18:57;;;;;;;8.50;3.03;;;16.60;99.90;;;;;;5033204;28;20647;-58
2021/07/31 02:21:24;;;;;;;9.53;3.67;;;16.60;99.90;;;;;;5035307;28;20212;-57
2021/07/31 02:23:51;;;;;;;4.93;3.33;;;16.60;99.90;;;;;;5027970;28;20343;-58
2021/07/31 02:26:17;;;;;;;8.07;3.57;;;16.60;99.90;;;;;;5034478;28;20312;-57
2021/07/31 02:28:44;;;;;;;6.80;3.60;;;16.70;99.90;;;;;;5031715;28;20201;-57
2021/07/31 02:31:11;;;;;;;8.03;2.97;;;16.60;99.90;;;;;;5031933;28;20368;-58
2021/07/31 02:33:39;;;;;;;6.97;3.63;;;16.50;99.90;;;;;;5033520;28;20221;-57
2021/07/31 02:36:06;;;;;;;6.93;3.63;;;16.40;99.90;;;;;;5033853;28;20345;-59
2021/07/31 02:38:34;;;;;;;6.90;4.27;;;16.40;99.90;;;;;;5034724;28;20276;-57
2021/07/31 02:41:00;;;;;;;10.43;3.90;;;16.40;99.90;;;;;;5030314;28;20226;-57
2021/07/31 02:43:27;;;;;;;7.93;4.33;;;16.40;99.90;;;;;;5034333;28;20225;-58
2021/07/31 02:45:54;;;;;;;10.63;4.93;;;16.40;99.90;;;;;;5030164;28;20264;-58
2021/07/31 02:48:21;;;;;;;5.73;3.20;;;16.50;99.90;;;;;;5033617;28;20237;-58
2021/07/31 02:50:48;;;;;;;7.00;3.57;;;16.50;99.90;;;;;;5033750;28;20960;-58
2021/07/31 02:53:15;;;;;;;6.97;3.97;;;16.50;99.90;;;;;;5034409;28;21584;-58
2021/07/31 02:55:46;;;;;;;7.47;4.20;;;16.40;99.90;;;;;;5033213;28;20246;-58
2021/07/31 02:58:13;;;;;;;7.83;3.67;;;16.40;99.90;;;;;;5029919;28;20288;-57
2021/07/31 03:00:40;;;;;;;8.47;4.40;;;16.40;99.90;;;;;;5032863;28;20695;-58
2021/07/31 03:03:07;;;;;;;7.47;4.13;;;16.40;99.90;;;;;;5032048;28;20209;-58
2021/07/31 03:05:34;;;;;;;6.93;3.87;;;16.40;99.90;;;;;;5032871;28;20245;-58
2021/07/31 03:08:01;;;;;;;6.53;4.00;;;16.40;99.90;;;;;;5032057;28;20365;-58
2021/07/31 03:10:28;;;;;;;5.77;3.70;;;16.30;99.90;;;;;;5036079;28;20669;-58
2021/07/31 03:12:55;;;;;;;4.37;3.50;;;16.30;99.90;;;;;;5034638;28;20246;-58
2021/07/31 03:15:22;;;;;;;7.03;4.13;;;16.30;99.90;;;;;;5032867;28;20654;-57
2021/07/31 03:17:48;;;;;;;8.20;3.80;;;16.30;99.90;;;;;;5034984;28;20672;-58
2021/07/31 03:20:15;;;;;;;7.90;3.90;;;16.30;99.90;;;;;;5031662;28;20214;-58
2021/07/31 03:22:42;;;;;;;6.40;3.80;;;16.30;99.90;;;;;;5031505;28;20316;-58
2021/07/31 03:25:10;;;;;;;8.60;3.73;;;16.20;99.90;;;;;;5031019;28;20309;-57
2021/07/31 03:27:36;;;;;;;8.23;4.30;;;16.20;99.90;;;;;;5034427;28;20193;-57
2021/07/31 03:30:04;;;;;;;5.53;3.70;;;16.00;99.90;;;;;;5033358;28;20535;-57
2021/07/31 03:32:31;;;;;;;7.20;4.00;;;16.00;99.90;;;;;;5028021;28;20258;-58
2021/07/31 03:34:58;;;;;;;8.63;4.30;;;15.90;99.90;;;;;;5029723;28;20587;-58
2021/07/31 03:37:24;;;;;;;6.40;4.00;;;15.70;99.90;;;;;;5035900;28;20234;-57
2021/07/31 03:39:51;;;;;;;9.13;4.80;;;15.60;99.90;;;;;;5035552;28;20743;-57
2021/07/31 03:42:18;;;;;;;7.77;4.67;;;15.60;99.90;;;;;;5032316;28;20316;-59
2021/07/31 03:44:45;;;;;;;11.37;4.97;;;15.50;99.90;;;;;;5031850;28;20222;-57
2021/07/31 03:47:11;;;;;;;10.13;4.90;;;15.40;99.90;;;;;;5033261;28;20625;-59
2021/07/31 03:49:38;;;;;;;9.17;4.87;;;15.40;99.90;;;;;;5033282;28;20199;-57
2021/07/31 03:52:05;;;;;;;9.73;5.50;;;15.40;99.90;;;;;;5035532;28;20277;-57
2021/07/31 03:54:35;;;;;;;8.27;4.90;;;15.30;99.90;;;;;;5039673;28;20279;-58
2021/07/31 03:57:02;;;;;;;6.17;4.70;;;15.40;99.90;;;;;;5035136;28;20287;-57
2021/07/31 03:59:28;;;;;;;11.80;4.97;;;15.30;99.90;;;;;;5036545;28;20335;-58
2021/07/31 04:01:56;;;;;;;7.90;5.03;;;15.30;99.90;;;;;;5036811;28;20367;-58
2021/07/31 04:04:23;;;;;;;6.23;4.43;;;15.30;99.90;;;;;;5033208;28;20617;-58
2021/07/31 04:06:50;;;;;;;6.60;4.13;;;15.20;99.90;;;;;;5034121;28;20339;-58
2021/07/31 04:09:16;;;;;;;6.43;4.17;;;15.20;99.90;;;;;;5036298;28;20242;-58
2021/07/31 04:11:43;;;;;;;12.83;4.70;;;15.20;99.90;;;;;;5040004;28;20201;-58
2021/07/31 04:14:12;;;;;;;6.80;4.27;;;15.30;99.90;;;;;;5033800;28;20298;-57
2021/07/31 04:16:39;;;;;;;5.80;4.30;;;15.30;99.90;;;;;;5038294;28;20745;-58
2021/07/31 04:19:06;;;;;;;7.97;4.47;;;15.30;99.90;;;;;;5036254;28;20653;-58
2021/07/31 04:21:33;;;;;;;8.40;4.47;;;15.40;99.90;;;;;;5035743;28;20283;-58
2021/07/31 04:23:59;;;;;;;9.07;4.73;;;15.60;99.90;;;;;;5026964;28;20205;-58
2021/07/31 04:26:26;;;;;;;5.43;4.47;;;15.50;99.90;;;;;;5037162;28;20240;-58
2021/07/31 04:28:53;;;;;;;8.13;4.70;;;15.50;99.90;;;;;;5038406;28;20255;-57
2021/07/31 04:31:20;;;;;;;9.53;5.07;;;15.30;99.90;;;;;;5034769;28;20309;-57
2021/07/31 04:33:47;;;;;;;8.13;4.93;;;15.30;99.90;;;;;;5034260;28;20732;-58
2021/07/31 04:36:14;;;;;;;6.73;4.33;;;15.20;99.90;;;;;;5037131;28;20748;-57
2021/07/31 04:38:41;;;;;;;7.67;4.60;;;15.20;99.90;;;;;;5038475;28;20220;-57
2021/07/31 04:41:07;;;;;;;8.70;5.17;;;15.20;99.90;;;;;;5034640;28;20415;-58
2021/07/31 04:43:34;;;;;;;7.50;4.50;;;15.30;99.90;;;;;;5036795;28;20688;-58
2021/07/31 04:46:01;;;;;;;9.77;4.80;;;15.20;99.90;;;;;;5031390;28;20311;-58
2021/07/31 04:48:29;;;;;;;7.63;4.63;;;15.20;99.90;;;;;;5033581;28;20205;-58
2021/07/31 04:51:01;;;;;;;6.77;4.33;;;15.20;99.90;;;;;;5034780;28;20618;-57
2021/07/31 04:53:28;;;;;;;13.33;5.00;;;15.20;99.90;;;;;;5039484;28;20696;-57
2021/07/31 04:55:56;;;;;;;6.53;4.27;;;15.10;99.90;;;;;;5039495;28;20696;-57
2021/07/31 04:58:24;;;;;;;8.63;4.77;;;15.10;99.90;;;;;;5041250;28;20648;-57
2021/07/31 05:00:51;;;;;;;12.90;5.13;;;15.20;99.90;;;;;;5037699;28;20329;-58
2021/07/31 05:03:18;;;;;;;6.13;4.57;;;15.20;99.90;;;;;;5035233;28;20230;-57
2021/07/31 05:05:46;;;;;;;7.33;4.83;;;15.30;99.90;;;;;;5027904;28;20301;-57
2021/07/31 05:08:13;;;;;;;9.47;4.73;;;15.30;99.90;;;;;;5036470;28;20259;-58
2021/07/31 05:10:42;;;;;;;7.70;4.73;;;15.30;99.90;;;;;;5037485;28;20278;-57
2021/07/31 05:13:09;;;;;;;6.57;4.57;;;15.40;99.90;;;;;;5036173;28;20220;-57
2021/07/31 05:15:37;;;;;;;10.83;4.53;;;15.30;99.90;;;;;;5036372;28;20295;-58
2021/07/31 05:18:05;;;;;;;8.27;4.97;;;15.40;99.90;;;;;;5038163;28;20204;-57
2021/07/31 05:20:33;;;;;;;6.63;4.13;;;15.50;99.90;;;;;;5029721;28;20283;-58
2021/07/31 05:23:01;;;;;;;9.30;4.83;;;15.40;99.90;;;;;;5033013;28;20244;-58
2021/07/31 05:25:27;;;;;;;9.37;4.80;;;15.40;99.90;;;;;;5036107;28;20286;-58
2021/07/31 05:27:55;;;;;;;6.70;4.43;;;15.40;99.90;;;;;;5032723;28;20291;-57
2021/07/31 05:30:22;;;;;;;7.90;4.57;;;15.50;99.90;;;;;;5036678;28;20203;-57
2021/07/31 05:32:49;;;;;;;8.70;4.83;;;15.40;99.90;;;;;;5038442;28;20656;-57
2021/07/31 05:35:16;;;;;;;6.73;4.13;;;15.40;99.90;;;;;;5032200;28;20292;-57
2021/07/31 05:37:43;;;;;;;6.30;4.37;;;15.50;99.90;;;;;;5038060;28;20379;-57
2021/07/31 05:40:11;;;;;;;7.33;4.90;;;15.50;99.90;;;;;;5036937;28;20287;-57
2021/07/31 05:42:39;;;;;;;7.97;4.13;;;15.40;99.90;;;;;;5033951;28;20293;-57
2021/07/31 05:45:07;;;;;;;8.27;4.23;;;15.50;99.90;;;;;;5036367;28;20704;-57
2021/07/31 05:47:34;;;;;;;8.73;4.73;;;15.40;99.90;;;;;;5033280;28;20262;-58
2021/07/31 05:50:05;;;;;;;6.27;4.30;;;15.50;99.90;;;;;;5035440;28;20201;-57
2021/07/31 05:52:36;;;;;;;7.37;4.67;;;15.50;99.90;;;;;;5034240;28;20254;-58
2021/07/31 05:55:05;;;;;;;9.80;4.97;;;15.50;99.90;;;;;;5032417;28;20634;-57
2021/07/31 05:57:33;;;;;;;10.97;4.97;;;15.60;99.90;;;;;;5034914;28;20310;-57
2021/07/31 06:00:00;;;;;;;11.97;5.00;;;15.60;99.90;;;;;;5034376;28;20210;-58
2021/07/31 06:02:27;;;;;;;8.73;4.93;;;15.80;99.90;;;;;;5028562;28;20262;-58
2021/07/31 06:04:54;;;;;;;7.30;5.10;;;15.90;99.90;;;;;;5033731;28;20199;-57
2021/07/31 06:07:21;;;;;;;8.27;5.60;;;15.80;99.90;;;;;;5032648;28;20248;-57
2021/07/31 06:09:51;;;;;;;7.63;5.23;;;15.80;99.90;;;;;;5039123;28;20287;-57
2021/07/31 06:12:18;;;;;;;18.67;6.17;;;15.90;99.90;;;;;;5037282;28;20622;-57
2021/07/31 06:14:46;;;;;;;10.73;6.17;;;15.90;99.90;;;;;;5033710;28;20375;-57
2021/07/31 06:17:13;;;;;;;9.77;6.57;;;15.80;99.90;;;;;;5034302;28;20242;-57
2021/07/31 06:19:41;;;;;;;11.93;6.10;;;15.80;99.90;;;;;;5029250;28;20203;-57
2021/07/31 06:22:08;;;;;;;8.10;5.93;;;15.70;99.90;;;;;;5032689;28;20298;-57
2021/07/31 06:24:35;;;;;;;11.43;6.70;;;15.70;99.90;;;;;;5035758;28;20228;-57
2021/07/31 06:27:03;;;;;;;10.50;7.07;;;15.70;99.90;;;;;;5032346;28;20255;-57
2021/07/31 06:29:30;;;;;;;9.43;7.20;;;15.80;99.90;;;;;;5030522;28;20306;-57
2021/07/31 06:31:56;;;;;;;15.30;8.23;;;15.70;99.90;;;;;;5035266;28;20241;-57
2021/07/31 06:34:25;;;;;;;12.23;6.97;;;15.70;99.90;;;;;;5031239;28;20225;-57
2021/07/31 06:36:52;;;;;;;8.87;6.93;;;15.70;99.90;;;;;;5036225;28;20210;-58
2021/07/31 06:39:19;;;;;;;10.47;6.40;;;15.70;99.90;;;;;;5035437;28;20206;-57
2021/07/31 06:41:46;;;;;;;10.47;6.97;;;15.60;99.90;;;;;;5034479;28;20307;-57
2021/07/31 06:44:13;;;;;;;8.13;6.93;;;15.70;99.90;;;;;;5036077;28;20203;-57
2021/07/31 06:46:40;;;;;;;7.17;6.00;;;15.70;99.90;;;;;;5041439;28;20596;-57
2021/07/31 06:49:06;;;;;;;11.00;6.77;;;15.60;99.90;;;;;;5036424;28;20196;-57
2021/07/31 06:51:33;;;;;;;8.20;6.20;;;15.60;99.90;;;;;;5039043;28;20231;-57
2021/07/31 06:54:03;;;;;;;8.07;6.17;;;15.60;99.90;;;;;;5037019;28;20630;-57
2021/07/31 06:56:33;;;;;;;10.13;6.70;;;15.60;99.90;;;;;;5039185;28;20296;-57
2021/07/31 06:59:01;;;;;;;10.70;7.20;;;15.60;99.90;;;;;;5040567;28;22300;-57
2021/07/31 07:01:28;;;;;;;10.20;7.40;;;15.80;99.90;;;;;;5037601;28;20233;-57
2021/07/31 07:03:55;;;;;;;12.33;8.30;;;15.70;99.90;;;;;;5033019;28;20217;-57
2021/07/31 07:06:22;;;;;;;11.43;8.13;;;15.60;99.90;;;;;;5035859;28;20335;-57
2021/07/31 07:08:48;;;;;;;10.27;8.40;;;15.60;99.90;;;;;;5031132;28;20322;-57
2021/07/31 07:11:16;;;;;;;9.30;7.60;;;15.60;99.90;;;;;;5032427;28;20305;-57
2021/07/31 07:13:44;;;;;;;10.87;7.13;;;15.60;99.90;;;;;;5033356;28;20287;-57
2021/07/31 07:16:11;;;;;;;10.17;7.83;;;15.60;99.90;;;;;;5029395;28;20226;-57
2021/07/31 07:18:37;;;;;;;10.03;7.67;;;15.60;99.90;;;;;;5032320;28;20208;-57
2021/07/31 07:21:09;;;;;;;14.10;7.90;;;15.60;99.90;;;;;;5033760;28;20200;-58
2021/07/31 07:23:37;;;;;;;10.60;7.13;;;15.70;99.90;;;;;;5034584;28;20814;-57
2021/07/31 07:26:11;;;;;;;7.97;6.87;;;15.60;99.90;;;;;;5035433;28;20843;-57
2021/07/31 07:28:39;;;;;;;9.70;6.67;;;15.50;99.90;;;;;;5028647;28;20616;-57
2021/07/31 07:31:09;;;;;;;11.87;7.23;;;15.50;99.90;;;;;;5038975;28;20219;-57
2021/07/31 07:33:36;;;;;;;10.97;8.27;;;15.60;99.90;;;;;;5035557;28;20287;-57
2021/07/31 07:36:13;;;;;;;7.93;6.47;;;15.70;99.90;;;;;;5034835;28;20299;-58
2021/07/31 07:38:40;;;;;;;11.33;7.47;;;15.50;99.90;;;;;;5040245;28;20239;-57
2021/07/31 07:41:08;;;;;;;10.50;6.67;;;15.50;99.90;;;;;;5041137;28;20206;-57
2021/07/31 07:43:36;;;;;;;10.67;6.30;;;15.60;99.90;;;;;;5036793;28;20239;-57
2021/07/31 07:46:03;;;;;;;9.80;6.87;;;15.50;99.90;;;;;;5034472;28;20307;-57
2021/07/31 07:48:30;;;;;;;10.93;6.73;;;15.50;99.90;;;;;;5037577;28;20702;-57
2021/07/31 07:50:57;;;;;;;8.73;6.90;;;15.50;99.90;;;;;;5034849;28;20209;-51
2021/07/31 07:53:24;;;;;;;8.07;6.23;;;15.50;99.90;;;;;;5035713;28;20196;-50
2021/07/31 07:55:50;;;;;;;13.23;7.27;;;15.60;99.90;;;;;;5034821;28;20320;-50
2021/07/31 07:58:17;;;;;;;11.20;6.60;;;15.80;99.90;;;;;;5037574;28;20243;-50
2021/07/31 08:00:44;;;;;;;9.93;5.77;;;15.90;99.90;;;;;;5034704;28;20301;-51
2021/07/31 08:03:12;;;;;;;7.97;5.77;;;15.90;99.90;;;;;;5034359;28;20507;-51
2021/07/31 08:05:39;;;;;;;10.50;6.30;;;16.00;99.90;;;;;;5025465;28;20303;-51
2021/07/31 08:08:07;;;;;;;8.47;6.50;;;16.00;99.90;;;;;;5036501;28;20324;-50
2021/07/31 08:10:34;;;;;;;9.80;6.63;;;16.00;99.90;;;;;;5036670;28;20566;-50
2021/07/31 08:13:01;;;;;;;8.53;5.93;;;16.10;99.90;;;;;;5039010;28;20205;-51
2021/07/31 08:15:28;;;;;;;15.57;6.07;;;16.20;99.90;;;;;;5035172;28;20305;-51
2021/07/31 08:17:55;;;;;;;10.50;6.23;;;16.20;99.90;;;;;;5036095;28;21005;-51
2021/07/31 08:20:22;;;;;;;7.13;6.03;;;16.10;99.90;;;;;;5033365;28;20305;-50
2021/07/31 08:22:49;;;;;;;11.63;5.87;;;16.30;99.90;;;;;;5038824;28;20297;-51
2021/07/31 08:25:16;;;;;;;8.70;6.17;;;16.30;99.90;;;;;;5040128;28;20282;-50
2021/07/31 08:27:43;;;;;;;8.73;6.00;;;16.20;99.90;;;;;;5035487;28;20318;-50
2021/07/31 08:30:10;;;;;;;8.23;5.93;;;16.20;99.90;;;;;;5037146;28;20701;-51
2021/07/31 08:32:37;;;;;;;9.03;6.27;;;16.40;99.90;;;;;;5037328;28;20309;-51
2021/07/31 08:35:04;;;;;;;10.83;6.17;;;16.40;99.90;;;;;;5037385;28;20596;-51
2021/07/31 08:37:36;;;;;;;8.80;6.10;;;16.60;99.90;;;;;;5037183;28;20236;-51
2021/07/31 08:40:10;;;;;;;9.47;5.60;;;16.90;99.90;;;;;;5039140;28;20209;-50
2021/07/31 08:42:39;;;;;;;6.13;4.83;;;16.90;99.90;;;;;;5045116;28;20628;-51
2021/07/31 08:45:07;;;;;;;6.10;4.63;;;16.90;99.90;;;;;;5036897;28;20731;-51
2021/07/31 08:47:34;;;;;;;6.13;4.70;;;16.90;99.90;;;;;;5040215;28;20279;-51
2021/07/31 08:50:03;;;;;;;6.77;4.93;;;16.80;99.90;;;;;;5036662;28;20198;-51
2021/07/31 08:52:32;;;;;;;8.80;4.77;;;16.70;99.90;;;;;;5038723;28;20297;-51
2021/07/31 08:54:59;;;;;;;8.80;5.10;;;16.80;99.90;;;;;;5036932;28;20657;-50
2021/07/31 08:57:26;;;;;;;6.20;4.37;;;16.80;99.90;;;;;;5036664;28;20344;-50
2021/07/31 08:59:53;;;;;;;7.67;4.10;;;16.80;99.90;;;;;;5040650;28;20726;-51
2021/07/31 09:02:21;;;;;;;4.10;2.77;;;16.80;99.90;;;;;;5041766;28;20286;-51
2021/07/31 09:04:51;;;;;;;4.63;3.23;;;17.10;99.90;;;;;;5034444;28;20711;-51
2021/07/31 09:07:18;;;;;;;4.40;3.87;;;17.50;99.90;;;;;;5041838;28;20364;-51
2021/07/31 09:09:46;;;;;;;7.57;3.77;;;17.70;99.90;;;;;;5041652;28;20296;-51
2021/07/31 09:12:13;;;;;;;4.87;3.50;;;17.40;99.90;;;;;;5039894;28;20202;-51
2021/07/31 09:14:45;;;;;;;4.63;3.03;;;17.50;99.90;;;;;;5038989;28;20615;-50
2021/07/31 09:17:23;;;;;;;4.57;3.10;;;17.40;99.90;;;;;;5044207;28;20265;-51
2021/07/31 09:19:50;;;;;;;5.47;3.00;;;17.40;99.90;;;;;;5034920;28;20239;-51
2021/07/31 09:22:17;;;;;;;4.50;3.13;;;17.40;99.90;;;;;;5036141;28;20324;-51
2021/07/31 09:24:44;;;;;;;6.97;3.17;;;17.40;99.90;;;;;;5036899;28;20647;-51
2021/07/31 09:27:25;;;;;;;4.97;2.90;;;17.30;99.90;;;;;;5038660;28;20302;-51
2021/07/31 09:30:02;;;;;;;3.83;2.43;;;17.30;99.90;;;;;;5034362;28;20225;-51
2021/07/31 09:32:37;;;;;;;3.17;2.30;;;17.30;99.90;;;;;;5034027;28;20257;-50
2021/07/31 09:35:21;;;;;;;6.53;2.87;;;17.30;99.90;;;;;;5035658;28;20304;-51
2021/07/31 09:37:49;;;;;;;3.93;2.23;;;17.30;99.90;;;;;;5040139;28;20387;-51
2021/07/31 09:40:30;;;;;;;3.37;2.10;;;17.30;99.90;;;;;;5042958;28;20198;-50
2021/07/31 09:43:16;;;;;;;4.13;1.87;;;17.40;99.90;;;;;;5043097;28;20236;-51
2021/07/31 09:45:43;;;;;;;3.83;1.97;;;17.30;99.90;;;;;;5040463;28;20250;-51
2021/07/31 09:48:10;;;;;;;2.77;1.60;;;17.40;99.90;;;;;;5041881;28;20312;-51
2021/07/31 09:50:46;;;;;;;2.00;1.73;;;17.40;99.90;;;;;;5040714;28;20229;-51
2021/07/31 09:53:21;;;;;;;3.07;1.67;;;17.70;99.90;;;;;;5034887;28;20658;-51
2021/07/31 09:55:49;;;;;;;2.67;1.90;;;17.70;99.90;;;;;;5042909;28;20237;-51
2021/07/31 09:58:20;;;;;;;3.00;1.60;;;17.70;99.90;;;;;;5041921;28;20230;-50
2021/07/31 10:00:50;;;;;;;4.30;2.00;;;17.60;99.90;;;;;;5042723;28;20247;-51
2021/07/31 10:03:18;;;;;;;2.67;2.40;;;17.50;99.90;;;;;;5038270;28;20210;-51
2021/07/31 10:05:45;;;;;;;2.40;2.20;;;17.80;99.90;;;;;;5038922;28;20213;-51
2021/07/31 10:08:35;;;;;;;3.30;2.40;;;17.90;99.90;;;;;;5041824;28;20238;-51
2021/07/31 10:11:03;;;;;;;2.60;2.40;;;18.10;99.90;;;;;;5035191;28;20630;-50
2021/07/31 10:13:30;;;;;;;3.23;2.60;;;18.10;99.90;;;;;;5034700;28;20250;-49
2021/07/31 10:15:57;;;;;;;4.67;2.50;;;18.00;99.90;;;;;;5040740;28;20895;-49
2021/07/31 10:18:26;;;;;;;2.83;2.00;;;17.90;99.90;;;;;;5042070;28;20326;-49
2021/07/31 10:20:53;;;;;;;4.53;2.00;;;17.80;99.90;;;;;;5035798;28;20292;-49
2021/07/31 10:23:55;;;;;;;4.27;2.00;;;17.80;99.90;;;;;;5041493;28;20555;-49
2021/07/31 10:26:23;;;;;;;2.57;2.00;;;17.70;99.90;;;;;;5038590;28;20251;-51
2021/07/31 10:28:50;;;;;;;3.10;2.17;;;17.80;99.90;;;;;;5028327;28;20339;-52
2021/07/31 10:31:34;;;;;;;3.17;2.10;;;17.90;99.90;;;;;;5033744;28;20228;-51
2021/07/31 10:34:01;;;;;;;3.27;1.90;;;18.10;99.90;;;;;;5031395;28;20808;-51
2021/07/31 10:36:33;;;;;;;2.10;1.87;;;18.20;99.90;;;;;;5033096;28;20261;-49
2021/07/31 10:39:20;;;;;;;4.07;1.80;;;18.60;99.90;;;;;;5034578;28;20244;-50
2021/07/31 10:42:02;;;;;;;2.30;1.90;;;18.50;99.90;;;;;;5033234;28;20345;-49
2021/07/31 10:44:29;;;;;;;2.10;1.90;;;18.60;99.90;;;;;;5031416;28;20218;-49
2021/07/31 10:47:37;;;;;;;2.50;1.90;;;18.90;99.90;;;;;;5033755;28;20248;-52
2021/07/31 10:50:26;;;;;;;5.27;2.70;;;19.00;99.90;;;;;;5028344;28;20270;-49
2021/07/31 10:53:03;;;;;;;2.43;2.00;;;19.10;99.90;;;;;;5035143;28;20816;-49
2021/07/31 10:55:36;;;;;;;3.07;1.90;;;19.50;99.90;;;;;;5036028;28;20235;-50
2021/07/31 10:58:10;;;;;;;3.83;1.70;;;19.40;99.90;;;;;;5038024;28;20221;-50
2021/07/31 11:00:42;;;;;;;1.87;1.73;;;19.50;99.90;;;;;;5031040;28;20205;-50
2021/07/31 11:03:13;;;;;;;2.97;2.10;;;19.50;99.90;;;;;;5039099;28;20200;-50
2021/07/31 11:05:49;;;;;;;2.03;1.80;;;19.50;99.90;;;;;;5034543;28;20311;-50
2021/07/31 11:08:19;;;;;;;4.33;2.07;;;18.70;99.90;;;;;;5039740;28;20347;-50
2021/07/31 11:10:56;;;;;;;2.77;2.20;;;18.40;99.90;;;;;;5028436;28;20309;-50
2021/07/31 11:13:23;;;;;;;5.50;2.43;;;18.40;99.90;;;;;;5034066;28;20540;-50
2021/07/31 11:15:56;;;;;;;3.13;2.57;;;18.30;99.90;;;;;;5037782;28;20446;-50
2021/07/31 11:18:24;;;;;;;4.80;3.10;;;18.70;99.90;;;;;;5035657;28;20205;-50
2021/07/31 11:20:52;;;;;;;4.83;2.80;;;19.10;99.90;;;;;;5037970;28;20759;-50
2021/07/31 11:23:19;;;;;;;5.10;2.63;;;18.90;99.90;;;;;;5040071;28;20233;-50
2021/07/31 11:25:46;;;;;;;4.23;2.50;;;18.80;99.90;;;;;;5038481;28;20240;-50
2021/07/31 11:28:13;;;;;;;4.47;2.47;;;18.50;99.90;;;;;;5041510;28;20676;-50
2021/07/31 11:30:46;;;;;;;3.90;2.73;;;18.20;99.90;;;;;;5036717;28;20249;-50
2021/07/31 11:33:20;;;;;;;3.63;2.67;;;18.30;99.90;;;;;;5040394;28;20305;-50
2021/07/31 11:35:54;;;;;;;3.47;2.60;;;18.80;99.90;;;;;;5040361;28;20226;-50
2021/07/31 11:38:28;;;;;;;3.23;2.70;;;18.80;99.90;;;;;;5038805;28;20675;-50
2021/07/31 11:41:08;;;;;;;4.23;2.73;;;18.80;99.90;;;;;;5042022;28;20948;-50
2021/07/31 11:43:50;;;;;;;4.23;3.03;;;18.50;99.90;;;;;;5037547;28;20267;-50
2021/07/31 11:46:24;;;;;;;4.10;2.77;;;18.40;99.90;;;;;;5042743;28;20206;-49
2021/07/31 11:48:51;;;;;;;3.73;2.23;;;18.70;99.90;;;;;;5036436;28;20607;-50
2021/07/31 11:51:18;;;;;;;3.00;2.50;;;19.50;99.90;;;;;;5040429;28;20231;-50
2021/07/31 11:53:45;;;;;;;4.13;2.33;;;19.50;99.90;;;;;;5037867;28;20226;-52
2021/07/31 11:56:18;;;;;;;6.57;2.80;;;19.50;99.90;;;;;;5040409;28;20204;-50
2021/07/31 11:58:46;;;;;;;3.70;2.40;;;19.70;99.90;;;;;;5032297;28;20232;-50
2021/07/31 12:01:14;;;;;;;2.60;1.70;;;20.40;99.90;;;;;;5038438;28;20268;-50
2021/07/31 12:03:45;;;;;;;3.10;2.03;;;20.60;99.90;;;;;;5037967;28;20210;-50
2021/07/31 12:06:33;;;;;;;3.20;2.03;;;20.10;99.90;;;;;;5035065;28;20222;-50
2021/07/31 12:09:18;;;;;;;3.63;2.17;;;19.70;99.90;;;;;;5030125;28;20188;-50
2021/07/31 12:11:46;;;;;;;2.80;2.17;;;19.30;99.90;;;;;;5040241;28;20201;-50
2021/07/31 12:14:34;;;;;;;2.57;2.20;;;19.20;99.90;;;;;;5034191;28;20205;-50
2021/07/31 12:17:21;;;;;;;4.17;2.73;;;19.20;99.90;;;;;;5037475;28;20214;-50
2021/07/31 12:19:57;;;;;;;2.67;2.20;;;19.10;99.90;;;;;;5038438;28;20201;-50
2021/07/31 12:22:25;;;;;;;4.47;2.10;;;19.30;99.90;;;;;;5041524;28;20602;-51
2021/07/31 12:25:15;;;;;;;3.33;2.23;;;19.30;99.90;;;;;;5036735;28;20200;-51
2021/07/31 12:27:54;;;;;;;3.20;2.03;;;19.40;99.90;;;;;;5035078;28;20638;-50
2021/07/31 12:30:29;;;;;;;4.87;2.30;;;19.10;99.90;;;;;;5036099;28;20199;-51
2021/07/31 12:33:03;;;;;;;3.80;2.60;;;18.90;99.90;;;;;;5033725;28;20298;-50
2021/07/31 12:35:46;;;;;;;3.47;2.40;;;19.00;99.90;;;;;;5034431;28;20721;-50
2021/07/31 12:38:23;;;;;;;3.23;2.60;;;19.20;99.90;;;;;;5044144;28;20561;-50
2021/07/31 12:40:54;;;;;;;3.20;2.60;;;19.20;99.90;;;;;;5040169;28;20623;-51
2021/07/31 12:43:23;;;;;;;4.47;2.20;;;19.30;99.90;;;;;;5041106;28;20214;-51
2021/07/31 12:45:55;;;;;;;5.40;2.60;;;19.60;99.90;;;;;;5039949;28;20241;-51
2021/07/31 12:48:22;;;;;;;3.33;2.53;;;20.10;99.90;;;;;;5039035;28;20831;-50
2021/07/31 12:50:49;;;;;;;4.07;2.40;;;20.40;99.90;;;;;;5038173;28;20687;-50
2021/07/31 12:53:18;;;;;;;4.67;2.93;;;20.60;99.90;;;;;;5034873;28;20718;-50
2021/07/31 12:55:45;;;;;;;2.13;1.83;;;20.70;99.90;;;;;;5041596;28;20280;-51